createdAt,value
2016-07-06T00:00:18.919Z,0
2016-07-06T00:01:19.087Z,0
2016-07-06T00:02:18.368Z,0
2016-07-06T00:03:18.915Z,0
2016-07-06T00:04:20.053Z,0
2016-07-06T00:05:18.957Z,0
2016-07-06T00:06:19.000Z,0
2016-07-06T00:07:18.965Z,0
2016-07-06T00:08:18.973Z,0
2016-07-06T00:09:19.592Z,0
2016-07-06T00:10:18.974Z,0
2016-07-06T00:11:18.992Z,0
2016-07-06T00:12:18.379Z,0
2016-07-06T00:13:18.986Z,0
2016-07-06T00:14:18.392Z,0
2016-07-06T00:15:19.097Z,0
2016-07-06T00:16:18.416Z,0
2016-07-06T00:17:18.758Z,0
2016-07-06T00:18:19.645Z,0
2016-07-06T00:19:20.488Z,0
2016-07-06T00:20:19.647Z,0
2016-07-06T00:21:18.442Z,0
2016-07-06T00:22:17.828Z,0
2016-07-06T00:23:18.443Z,0
2016-07-06T00:24:19.059Z,0
2016-07-06T00:25:19.666Z,0
2016-07-06T00:26:19.208Z,0
2016-07-06T00:27:19.063Z,0
2016-07-06T00:28:19.073Z,0
2016-07-06T00:29:19.075Z,0
2016-07-06T00:30:20.080Z,0
2016-07-06T00:31:18.488Z,0
2016-07-06T00:32:19.720Z,0
2016-07-06T00:33:18.492Z,0
2016-07-06T00:34:19.100Z,0
2016-07-06T00:35:19.117Z,0
2016-07-06T00:36:19.127Z,0
2016-07-06T00:37:19.131Z,0
2016-07-06T00:38:19.154Z,0
2016-07-06T00:39:18.529Z,0
2016-07-06T00:40:18.535Z,0
2016-07-06T00:41:20.111Z,0
2016-07-06T00:42:19.171Z,0
2016-07-06T00:43:19.170Z,0
2016-07-06T00:44:19.166Z,0
2016-07-06T00:45:18.560Z,0
2016-07-06T00:46:19.800Z,0
2016-07-06T00:47:18.581Z,0
2016-07-06T00:48:17.974Z,0
2016-07-06T00:49:18.592Z,0
2016-07-06T00:50:20.064Z,0
2016-07-06T00:51:18.602Z,0
2016-07-06T00:52:18.941Z,0
2016-07-06T00:53:19.201Z,0
2016-07-06T00:54:18.598Z,0
2016-07-06T00:55:19.851Z,0
2016-07-06T00:56:19.244Z,0
2016-07-06T00:57:19.265Z,0
2016-07-06T00:58:18.028Z,0
2016-07-06T00:59:19.928Z,0
2016-07-06T01:00:18.659Z,0
2016-07-06T01:01:19.121Z,0
2016-07-06T01:02:18.717Z,0
2016-07-06T01:03:18.732Z,0
2016-07-06T01:04:18.672Z,0
2016-07-06T01:05:18.683Z,0
2016-07-06T01:06:18.687Z,0
2016-07-06T01:07:18.693Z,0
2016-07-06T01:08:18.071Z,0
2016-07-06T01:09:20.236Z,0
2016-07-06T01:10:20.054Z,0
2016-07-06T01:11:18.832Z,0
2016-07-06T01:12:19.527Z,0
2016-07-06T01:13:19.344Z,0
2016-07-06T01:14:21.040Z,0
2016-07-06T01:15:18.733Z,0
2016-07-06T01:16:19.967Z,0
2016-07-06T01:17:19.360Z,0
2016-07-06T01:18:18.737Z,0
2016-07-06T01:19:18.740Z,0
2016-07-06T01:20:18.771Z,0
2016-07-06T01:21:19.358Z,0
2016-07-06T01:22:19.388Z,0
2016-07-06T01:23:18.776Z,0
2016-07-06T01:24:18.755Z,0
2016-07-06T01:25:20.645Z,0
2016-07-06T01:26:18.793Z,0
2016-07-06T01:27:19.407Z,0
2016-07-06T01:28:19.425Z,0
2016-07-06T01:29:19.407Z,0
2016-07-06T01:30:20.024Z,0
2016-07-06T01:31:19.415Z,0
2016-07-06T01:32:18.824Z,0
2016-07-06T01:33:19.423Z,0
2016-07-06T01:34:20.729Z,0
2016-07-06T01:35:18.846Z,0
2016-07-06T01:36:20.111Z,0
2016-07-06T01:37:19.470Z,0
2016-07-06T01:38:20.091Z,0
2016-07-06T01:39:19.487Z,0
2016-07-06T01:40:18.869Z,0
2016-07-06T01:41:20.106Z,0
2016-07-06T01:42:18.890Z,0
2016-07-06T01:43:20.116Z,0
2016-07-06T01:44:20.118Z,0
2016-07-06T01:45:20.215Z,0
2016-07-06T01:46:19.510Z,0
2016-07-06T01:47:19.755Z,0
2016-07-06T01:48:19.533Z,0
2016-07-06T01:49:19.538Z,0
2016-07-06T01:50:19.541Z,0
2016-07-06T01:51:19.551Z,0
2016-07-06T01:52:20.170Z,0
2016-07-06T01:53:18.929Z,0
2016-07-06T01:54:18.952Z,0
2016-07-06T01:55:18.937Z,0
2016-07-06T01:56:19.764Z,0
2016-07-06T01:57:19.611Z,0
2016-07-06T01:58:18.970Z,0
2016-07-06T01:59:19.640Z,0
2016-07-06T02:00:19.601Z,0
2016-07-06T02:01:20.330Z,0
2016-07-06T02:02:20.228Z,0
2016-07-06T02:03:20.276Z,0
2016-07-06T02:04:19.619Z,0
2016-07-06T02:05:19.027Z,0
2016-07-06T02:06:19.647Z,0
2016-07-06T02:07:19.284Z,0
2016-07-06T02:08:19.033Z,0
2016-07-06T02:09:21.228Z,0
2016-07-06T02:10:20.272Z,0
2016-07-06T02:11:19.640Z,0
2016-07-06T02:12:19.664Z,0
2016-07-06T02:13:19.047Z,0
2016-07-06T02:14:20.287Z,0
2016-07-06T02:15:19.068Z,0
2016-07-06T02:16:20.294Z,0
2016-07-06T02:17:19.087Z,0
2016-07-06T02:18:19.701Z,0
2016-07-06T02:19:19.701Z,0
2016-07-06T02:20:21.334Z,0
2016-07-06T02:21:19.723Z,0
2016-07-06T02:22:19.110Z,0
2016-07-06T02:23:20.341Z,0
2016-07-06T02:24:19.743Z,0
2016-07-06T02:25:19.734Z,0
2016-07-06T02:26:19.746Z,0
2016-07-06T02:27:19.147Z,0
2016-07-06T02:28:19.757Z,0
2016-07-06T02:29:20.736Z,0
2016-07-06T02:30:19.153Z,0
2016-07-06T02:31:20.515Z,0
2016-07-06T02:32:19.153Z,0
2016-07-06T02:33:19.766Z,0
2016-07-06T02:34:19.170Z,0
2016-07-06T02:35:19.164Z,0
2016-07-06T02:36:19.784Z,0
2016-07-06T02:37:20.415Z,0
2016-07-06T02:38:18.582Z,0
2016-07-06T02:39:19.804Z,0
2016-07-06T02:40:20.825Z,0
2016-07-06T02:41:20.456Z,0
2016-07-06T02:42:20.414Z,0
2016-07-06T02:43:19.834Z,0
2016-07-06T02:44:19.841Z,0
2016-07-06T02:45:19.842Z,0
2016-07-06T02:46:19.837Z,0
2016-07-06T02:47:19.833Z,0
2016-07-06T02:48:20.445Z,0
2016-07-06T02:49:19.252Z,0
2016-07-06T02:50:19.848Z,0
2016-07-06T02:51:21.593Z,0
2016-07-06T02:52:20.508Z,0
2016-07-06T02:53:20.197Z,0
2016-07-06T02:54:19.893Z,0
2016-07-06T02:55:19.895Z,0
2016-07-06T02:56:19.293Z,0
2016-07-06T02:57:19.299Z,0
2016-07-06T02:58:19.306Z,0
2016-07-06T02:59:19.920Z,0
2016-07-06T03:00:18.699Z,0
2016-07-06T03:01:19.976Z,0
2016-07-06T03:02:21.595Z,0
2016-07-06T03:03:19.384Z,0
2016-07-06T03:04:19.985Z,0
2016-07-06T03:05:19.341Z,0
2016-07-06T03:06:19.960Z,0
2016-07-06T03:07:19.962Z,4
2016-07-06T03:08:19.970Z,4
2016-07-06T03:09:19.352Z,4
2016-07-06T03:10:19.980Z,4
2016-07-06T03:11:19.981Z,4
2016-07-06T03:12:19.356Z,4
2016-07-06T03:13:21.080Z,0
2016-07-06T03:14:19.998Z,0
2016-07-06T03:15:19.577Z,4
2016-07-06T03:16:19.380Z,4
2016-07-06T03:17:19.376Z,4
2016-07-06T03:18:20.612Z,4
2016-07-06T03:19:20.618Z,4
2016-07-06T03:20:20.622Z,4
2016-07-06T03:21:19.402Z,8
2016-07-06T03:22:20.048Z,4
2016-07-06T03:23:19.433Z,4
2016-07-06T03:24:34.295Z,4
2016-07-06T03:25:18.811Z,8
2016-07-06T03:26:20.067Z,8
2016-07-06T03:27:18.844Z,8
2016-07-06T03:28:20.076Z,8
2016-07-06T03:29:20.703Z,8
2016-07-06T03:30:20.087Z,12
2016-07-06T03:31:19.482Z,12
2016-07-06T03:32:19.499Z,12
2016-07-06T03:33:20.108Z,16
2016-07-06T03:34:20.116Z,20
2016-07-06T03:35:21.131Z,20
2016-07-06T03:36:20.123Z,20
2016-07-06T03:37:20.109Z,24
2016-07-06T03:38:20.742Z,24
2016-07-06T03:39:19.523Z,24
2016-07-06T03:40:20.143Z,24
2016-07-06T03:41:20.139Z,28
2016-07-06T03:42:20.150Z,28
2016-07-06T03:43:20.143Z,32
2016-07-06T03:44:19.551Z,40
2016-07-06T03:45:20.771Z,36
2016-07-06T03:46:20.664Z,40
2016-07-06T03:47:19.554Z,40
2016-07-06T03:48:20.173Z,40
2016-07-06T03:49:19.557Z,44
2016-07-06T03:50:21.286Z,48
2016-07-06T03:51:20.171Z,52
2016-07-06T03:52:18.979Z,68
2016-07-06T03:53:20.217Z,76
2016-07-06T03:54:19.597Z,76
2016-07-06T03:55:20.226Z,72
2016-07-06T03:56:18.997Z,64
2016-07-06T03:57:20.377Z,64
2016-07-06T03:58:20.223Z,60
2016-07-06T03:59:19.610Z,60
2016-07-06T04:00:19.620Z,56
2016-07-06T04:01:21.102Z,56
2016-07-06T04:02:19.621Z,56
2016-07-06T04:03:19.640Z,56
2016-07-06T04:04:20.273Z,56
2016-07-06T04:05:19.051Z,64
2016-07-06T04:06:20.283Z,64
2016-07-06T04:07:20.323Z,68
2016-07-06T04:08:20.292Z,60
2016-07-06T04:09:20.286Z,56
2016-07-06T04:10:19.684Z,52
2016-07-06T04:11:19.073Z,52
2016-07-06T04:12:21.449Z,52
2016-07-06T04:13:20.315Z,52
2016-07-06T04:14:19.085Z,52
2016-07-06T04:15:20.321Z,52
2016-07-06T04:16:19.718Z,52
2016-07-06T04:17:20.335Z,52
2016-07-06T04:18:19.717Z,56
2016-07-06T04:19:19.882Z,60
2016-07-06T04:20:19.734Z,60
2016-07-06T04:21:21.320Z,64
2016-07-06T04:22:20.974Z,72
2016-07-06T04:23:19.765Z,84
2016-07-06T04:24:35.228Z,88
2016-07-06T04:25:20.995Z,88
2016-07-06T04:26:19.782Z,96
2016-07-06T04:27:19.762Z,112
2016-07-06T04:28:20.377Z,120
2016-07-06T04:29:20.371Z,140
2016-07-06T04:30:20.383Z,168
2016-07-06T04:31:20.395Z,176
2016-07-06T04:32:21.487Z,200
2016-07-06T04:33:19.806Z,196
2016-07-06T04:34:21.057Z,176
2016-07-06T04:35:20.432Z,180
2016-07-06T04:36:20.418Z,192
2016-07-06T04:37:19.823Z,212
2016-07-06T04:38:19.218Z,236
2016-07-06T04:39:20.449Z,388
2016-07-06T04:40:20.435Z,268
2016-07-06T04:41:19.821Z,180
2016-07-06T04:42:19.856Z,172
2016-07-06T04:43:19.856Z,180
2016-07-06T04:44:20.472Z,184
2016-07-06T04:45:21.104Z,192
2016-07-06T04:46:20.490Z,232
2016-07-06T04:47:20.483Z,272
2016-07-06T04:48:19.883Z,316
2016-07-06T04:49:19.892Z,404
2016-07-06T04:50:20.490Z,384
2016-07-06T04:51:20.518Z,428
2016-07-06T04:52:20.517Z,456
2016-07-06T04:53:20.514Z,468
2016-07-06T04:54:21.832Z,496
2016-07-06T04:55:19.310Z,528
2016-07-06T04:56:20.882Z,640
2016-07-06T04:57:20.546Z,868
2016-07-06T04:58:20.552Z,1604
2016-07-06T04:59:19.936Z,1528
2016-07-06T05:00:19.955Z,1040
2016-07-06T05:01:19.957Z,1012
2016-07-06T05:02:20.574Z,1596
2016-07-06T05:03:21.502Z,796
2016-07-06T05:04:20.633Z,656
2016-07-06T05:05:21.166Z,720
2016-07-06T05:06:19.981Z,764
2016-07-06T05:07:20.786Z,1196
2016-07-06T05:08:20.605Z,1388
2016-07-06T05:09:20.623Z,1808
2016-07-06T05:10:20.154Z,2096
2016-07-06T05:11:21.247Z,1556
2016-07-06T05:12:20.632Z,1596
2016-07-06T05:13:20.008Z,2184
2016-07-06T05:14:20.648Z,1864
2016-07-06T05:15:20.044Z,2024
2016-07-06T05:16:22.379Z,13384
2016-07-06T05:17:20.053Z,15504
2016-07-06T05:18:20.922Z,16320
2016-07-06T05:19:21.288Z,3748
2016-07-06T05:20:20.079Z,1348
2016-07-06T05:21:21.309Z,1480
2016-07-06T05:22:21.304Z,3248
2016-07-06T05:23:21.323Z,14720
2016-07-06T05:24:20.095Z,16096
2016-07-06T05:25:20.716Z,16640
2016-07-06T05:26:20.729Z,2520
2016-07-06T05:27:21.780Z,4544
2016-07-06T05:28:20.127Z,16832
2016-07-06T05:29:20.838Z,16800
2016-07-06T05:30:20.135Z,16416
2016-07-06T05:31:19.530Z,16096
2016-07-06T05:32:20.763Z,16160
2016-07-06T05:33:20.154Z,16512
2016-07-06T05:34:21.390Z,16384
2016-07-06T05:35:20.179Z,16736
2016-07-06T05:36:20.168Z,16608
2016-07-06T05:37:20.803Z,16320
2016-07-06T05:38:21.966Z,16384
2016-07-06T05:39:21.426Z,16480
2016-07-06T05:40:20.928Z,16352
2016-07-06T05:41:20.209Z,16032
2016-07-06T05:42:20.848Z,15776
2016-07-06T05:43:20.243Z,15776
2016-07-06T05:44:20.242Z,16032
2016-07-06T05:45:20.870Z,15904
2016-07-06T05:46:20.879Z,15872
2016-07-06T05:47:22.423Z,16288
2016-07-06T05:48:20.887Z,16288
2016-07-06T05:49:21.568Z,16000
2016-07-06T05:50:21.527Z,15584
2016-07-06T05:51:21.157Z,15520
2016-07-06T05:52:20.928Z,15648
2016-07-06T05:53:21.550Z,15712
2016-07-06T05:54:20.333Z,16736
2016-07-06T05:55:20.349Z,18080
2016-07-06T05:56:20.961Z,19008
2016-07-06T05:57:21.587Z,18656
2016-07-06T05:58:20.365Z,19104
2016-07-06T05:59:20.966Z,18880
2016-07-06T06:00:21.952Z,19008
2016-07-06T06:01:21.616Z,19296
2016-07-06T06:02:20.947Z,19264
2016-07-06T06:03:20.463Z,19072
2016-07-06T06:04:21.694Z,21216
2016-07-06T06:05:20.427Z,21280
2016-07-06T06:06:20.440Z,22336
2016-07-06T06:07:21.677Z,23008
2016-07-06T06:08:21.070Z,22624
2016-07-06T06:09:20.480Z,20000
2016-07-06T06:10:21.703Z,19712
2016-07-06T06:11:21.900Z,19968
2016-07-06T06:12:20.480Z,20480
2016-07-06T06:13:21.117Z,21568
2016-07-06T06:14:21.132Z,20896
2016-07-06T06:15:20.519Z,20000
2016-07-06T06:16:20.528Z,20064
2016-07-06T06:17:21.767Z,22656
2016-07-06T06:18:20.544Z,23648
2016-07-06T06:19:21.788Z,24256
2016-07-06T06:20:22.286Z,25152
2016-07-06T06:21:21.807Z,25824
2016-07-06T06:22:21.846Z,26432
2016-07-06T06:23:20.598Z,26720
2016-07-06T06:24:21.222Z,20512
2016-07-06T06:25:20.617Z,25920
2016-07-06T06:26:20.015Z,26752
2016-07-06T06:27:21.248Z,26400
2016-07-06T06:28:20.650Z,8400
2016-07-06T06:29:20.658Z,5312
2016-07-06T06:30:20.661Z,3780
2016-07-06T06:31:23.031Z,1964
2016-07-06T06:32:21.912Z,1672
2016-07-06T06:33:21.431Z,2540
2016-07-06T06:34:21.301Z,13692
2016-07-06T06:35:21.300Z,20704
2016-07-06T06:36:20.713Z,7040
2016-07-06T06:37:20.112Z,10796
2016-07-06T06:38:21.338Z,7496
2016-07-06T06:39:21.352Z,9644
2016-07-06T06:40:21.360Z,3616
2016-07-06T06:41:20.753Z,17568
2016-07-06T06:42:20.767Z,6592
2016-07-06T06:43:21.995Z,15212
2016-07-06T06:44:22.413Z,27392
2016-07-06T06:45:22.016Z,5976
2016-07-06T06:46:21.415Z,4212
2016-07-06T06:47:20.807Z,3812
2016-07-06T06:48:22.032Z,5168
2016-07-06T06:49:21.440Z,3884
2016-07-06T06:50:21.426Z,22848
2016-07-06T06:51:20.216Z,22432
2016-07-06T06:52:20.825Z,32800
2016-07-06T06:53:22.434Z,25664
2016-07-06T06:54:21.473Z,28192
2016-07-06T06:55:22.328Z,34080
2016-07-06T06:56:20.873Z,29600
2016-07-06T06:57:21.477Z,28960
2016-07-06T06:58:20.890Z,10756
2016-07-06T06:59:20.901Z,14176
2016-07-06T07:00:20.905Z,9244
2016-07-06T07:01:20.900Z,8980
2016-07-06T07:02:21.514Z,17472
2016-07-06T07:03:21.598Z,8936
2016-07-06T07:04:21.931Z,41920
2016-07-06T07:05:21.554Z,19488
2016-07-06T07:06:22.832Z,22784
2016-07-06T07:07:22.190Z,17120
2016-07-06T07:08:21.589Z,8480
2016-07-06T07:09:21.601Z,3948
2016-07-06T07:10:20.983Z,3684
2016-07-06T07:11:21.035Z,6112
2016-07-06T07:12:20.978Z,5608
2016-07-06T07:13:21.620Z,10948
2016-07-06T07:14:22.231Z,8284
2016-07-06T07:15:22.570Z,10720
2016-07-06T07:16:21.655Z,20096
2016-07-06T07:17:22.819Z,44032
2016-07-06T07:18:21.662Z,45728
2016-07-06T07:19:21.264Z,43200
2016-07-06T07:20:21.074Z,41920
2016-07-06T07:21:21.081Z,38880
2016-07-06T07:22:21.698Z,37120
2016-07-06T07:23:20.481Z,35712
2016-07-06T07:24:35.953Z,37536
2016-07-06T07:25:21.125Z,41824
2016-07-06T07:26:22.577Z,43808
2016-07-06T07:27:21.747Z,46208
2016-07-06T07:28:21.583Z,45088
2016-07-06T07:29:21.760Z,45056
2016-07-06T07:30:21.204Z,47104
2016-07-06T07:31:20.558Z,47904
2016-07-06T07:32:22.413Z,47392
2016-07-06T07:33:21.199Z,47008
2016-07-06T07:34:22.425Z,47136
2016-07-06T07:35:21.822Z,3252
2016-07-06T07:36:21.224Z,2600
2016-07-06T07:37:22.611Z,4340
2016-07-06T07:38:21.843Z,20672
2016-07-06T07:39:22.861Z,7920
2016-07-06T07:40:22.485Z,25856
2016-07-06T07:41:21.318Z,27136
2016-07-06T07:42:21.272Z,10664
2016-07-06T07:43:21.895Z,4124
2016-07-06T07:44:21.912Z,4916
2016-07-06T07:45:21.914Z,2364
2016-07-06T07:46:21.900Z,2844
2016-07-06T07:47:21.321Z,3140
2016-07-06T07:48:21.331Z,2868
2016-07-06T07:49:21.952Z,2768
2016-07-06T07:50:22.978Z,2748
2016-07-06T07:51:21.352Z,2632
2016-07-06T07:52:21.971Z,2584
2016-07-06T07:53:22.595Z,2636
2016-07-06T07:54:22.883Z,2456
2016-07-06T07:55:21.379Z,2328
2016-07-06T07:56:21.390Z,1664
2016-07-06T07:57:22.617Z,1876
2016-07-06T07:58:22.622Z,1984
2016-07-06T07:59:23.571Z,2560
2016-07-06T08:00:21.403Z,2240
2016-07-06T08:01:21.922Z,2052
2016-07-06T08:02:22.656Z,2188
2016-07-06T08:03:22.049Z,2224
2016-07-06T08:04:21.449Z,2268
2016-07-06T08:05:21.567Z,2328
2016-07-06T08:06:20.858Z,2508
2016-07-06T08:07:22.077Z,2680
2016-07-06T08:08:22.089Z,2532
2016-07-06T08:09:21.229Z,2392
2016-07-06T08:10:22.134Z,2380
2016-07-06T08:11:21.487Z,2336
2016-07-06T08:12:22.290Z,2276
2016-07-06T08:13:22.104Z,2296
2016-07-06T08:14:21.557Z,2236
2016-07-06T08:15:20.897Z,2240
2016-07-06T08:16:21.513Z,1724
2016-07-06T08:17:21.522Z,1932
2016-07-06T08:18:22.137Z,2880
2016-07-06T08:19:22.148Z,2544
2016-07-06T08:20:22.151Z,2412
2016-07-06T08:21:22.760Z,2292
2016-07-06T08:22:21.557Z,2244
2016-07-06T08:23:22.941Z,2300
2016-07-06T08:24:22.184Z,2356
2016-07-06T08:25:22.192Z,2476
2016-07-06T08:26:22.198Z,2484
2016-07-06T08:27:22.222Z,2428
2016-07-06T08:28:22.215Z,2292
2016-07-06T08:29:22.238Z,2500
2016-07-06T08:30:22.848Z,2460
2016-07-06T08:31:21.633Z,2380
2016-07-06T08:32:23.007Z,2536
2016-07-06T08:33:22.864Z,1704
2016-07-06T08:34:23.175Z,1644
2016-07-06T08:35:21.658Z,2056
2016-07-06T08:36:22.274Z,2328
2016-07-06T08:37:22.905Z,2032
2016-07-06T08:38:22.301Z,2708
2016-07-06T08:39:22.309Z,2628
2016-07-06T08:40:22.305Z,2716
2016-07-06T08:41:21.681Z,2960
2016-07-06T08:42:22.320Z,3104
2016-07-06T08:43:22.523Z,2912
2016-07-06T08:44:22.327Z,2672
2016-07-06T08:45:22.678Z,2620
2016-07-06T08:46:21.734Z,2704
2016-07-06T08:47:23.830Z,2792
2016-07-06T08:48:22.354Z,3068
2016-07-06T08:49:22.382Z,3016
2016-07-06T08:50:21.756Z,2844
2016-07-06T08:51:22.383Z,3028
2016-07-06T08:52:22.375Z,2740
2016-07-06T08:53:22.387Z,2512
2016-07-06T08:54:22.281Z,2232
2016-07-06T08:55:21.198Z,2172
2016-07-06T08:56:22.702Z,2164
2016-07-06T08:57:22.420Z,2116
2016-07-06T08:58:21.820Z,2116
2016-07-06T08:59:21.830Z,2308
2016-07-06T09:00:22.444Z,2368
2016-07-06T09:01:22.453Z,3096
2016-07-06T09:02:23.076Z,2788
2016-07-06T09:03:22.468Z,3716
2016-07-06T09:04:22.479Z,3868
2016-07-06T09:05:22.524Z,3792
2016-07-06T09:06:21.875Z,3796
2016-07-06T09:07:23.273Z,3748
2016-07-06T09:08:21.886Z,3552
2016-07-06T09:09:23.720Z,3652
2016-07-06T09:10:21.916Z,3676
2016-07-06T09:11:21.913Z,2760
2016-07-06T09:12:21.314Z,2728
2016-07-06T09:13:21.926Z,2660
2016-07-06T09:14:21.318Z,3068
2016-07-06T09:15:23.182Z,2804
2016-07-06T09:16:23.622Z,3328
2016-07-06T09:17:22.564Z,2732
2016-07-06T09:18:21.958Z,2592
2016-07-06T09:19:22.576Z,2528
2016-07-06T09:20:23.560Z,2512
2016-07-06T09:21:21.363Z,2576
2016-07-06T09:22:21.373Z,3524
2016-07-06T09:23:22.053Z,2728
2016-07-06T09:24:22.349Z,2640
2016-07-06T09:25:21.397Z,2584
2016-07-06T09:26:22.014Z,2484
2016-07-06T09:27:22.976Z,2376
2016-07-06T09:28:22.023Z,2356
2016-07-06T09:29:21.971Z,2432
2016-07-06T09:30:21.426Z,2420
2016-07-06T09:31:23.620Z,2416
2016-07-06T09:32:23.277Z,2736
2016-07-06T09:33:22.052Z,3276
2016-07-06T09:34:22.678Z,3344
2016-07-06T09:35:23.296Z,3256
2016-07-06T09:36:23.309Z,3252
2016-07-06T09:37:21.484Z,3324
2016-07-06T09:38:23.554Z,3476
2016-07-06T09:39:23.321Z,3472
2016-07-06T09:40:21.925Z,3300
2016-07-06T09:41:22.098Z,3244
2016-07-06T09:42:23.570Z,3192
2016-07-06T09:43:22.125Z,3160
2016-07-06T09:44:21.521Z,2952
2016-07-06T09:45:23.370Z,2268
2016-07-06T09:46:22.137Z,2264
2016-07-06T09:47:22.761Z,2768
2016-07-06T09:48:22.764Z,2700
2016-07-06T09:49:22.769Z,2644
2016-07-06T09:50:22.776Z,2816
2016-07-06T09:51:24.682Z,2760
2016-07-06T09:52:22.186Z,2336
2016-07-06T09:53:23.506Z,2472
2016-07-06T09:54:22.209Z,2560
2016-07-06T09:55:21.591Z,1608
2016-07-06T09:56:23.430Z,1900
2016-07-06T09:57:22.832Z,2028
2016-07-06T09:58:22.208Z,1456
2016-07-06T09:59:22.861Z,1432
2016-07-06T10:00:22.863Z,1312
2016-07-06T10:01:23.462Z,1380
2016-07-06T10:02:24.713Z,2296
2016-07-06T10:03:22.246Z,2424
2016-07-06T10:04:22.247Z,1704
2016-07-06T10:05:22.315Z,1512
2016-07-06T10:06:23.505Z,1440
2016-07-06T10:07:22.286Z,1436
2016-07-06T10:08:22.293Z,1856
2016-07-06T10:09:21.674Z,2252
2016-07-06T10:10:22.914Z,2368
2016-07-06T10:11:22.917Z,2468
2016-07-06T10:12:22.312Z,2528
2016-07-06T10:13:22.325Z,2780
2016-07-06T10:14:22.335Z,2764
2016-07-06T10:15:23.603Z,2024
2016-07-06T10:16:22.961Z,1788
2016-07-06T10:17:21.722Z,1836
2016-07-06T10:18:23.580Z,1716
2016-07-06T10:19:22.978Z,1624
2016-07-06T10:20:21.767Z,1484
2016-07-06T10:21:23.609Z,1556
2016-07-06T10:22:23.612Z,1544
2016-07-06T10:23:22.392Z,1752
2016-07-06T10:24:22.393Z,2064
2016-07-06T10:25:22.408Z,1968
2016-07-06T10:26:23.664Z,2336
2016-07-06T10:27:22.402Z,2008
2016-07-06T10:28:23.652Z,1512
2016-07-06T10:29:23.653Z,1464
2016-07-06T10:30:23.052Z,1476
2016-07-06T10:31:21.819Z,1664
2016-07-06T10:32:22.449Z,1984
2016-07-06T10:33:23.078Z,1740
2016-07-06T10:34:23.082Z,1700
2016-07-06T10:35:23.088Z,1560
2016-07-06T10:36:22.482Z,2172
2016-07-06T10:37:23.900Z,1348
2016-07-06T10:38:23.728Z,1804
2016-07-06T10:39:22.513Z,1616
2016-07-06T10:40:22.511Z,1780
2016-07-06T10:41:23.134Z,2520
2016-07-06T10:42:22.523Z,1936
2016-07-06T10:43:21.915Z,1940
2016-07-06T10:44:23.237Z,2420
2016-07-06T10:45:23.157Z,2056
2016-07-06T10:46:22.544Z,1716
2016-07-06T10:47:23.159Z,1656
2016-07-06T10:48:22.568Z,1584
2016-07-06T10:49:23.181Z,1448
2016-07-06T10:50:23.805Z,1476
2016-07-06T10:51:22.585Z,1528
2016-07-06T10:52:21.971Z,1524
2016-07-06T10:53:23.814Z,1488
2016-07-06T10:54:22.674Z,1468
2016-07-06T10:55:23.425Z,1412
2016-07-06T10:56:25.766Z,1380
2016-07-06T10:57:22.624Z,1392
2016-07-06T10:58:22.625Z,1348
2016-07-06T10:59:22.757Z,1328
2016-07-06T11:00:23.248Z,1252
2016-07-06T11:01:23.255Z,1176
2016-07-06T11:02:23.263Z,1176
2016-07-06T11:03:22.660Z,1228
2016-07-06T11:04:22.664Z,1944
2016-07-06T11:05:22.055Z,2060
2016-07-06T11:06:23.686Z,2168
2016-07-06T11:07:22.683Z,2248
2016-07-06T11:08:23.353Z,2216
2016-07-06T11:09:22.097Z,2040
2016-07-06T11:10:22.391Z,2320
2016-07-06T11:11:23.321Z,2288
2016-07-06T11:12:23.322Z,2276
2016-07-06T11:13:22.721Z,2100
2016-07-06T11:14:22.725Z,2152
2016-07-06T11:15:23.963Z,2240
2016-07-06T11:16:22.738Z,2260
2016-07-06T11:17:24.324Z,1684
2016-07-06T11:18:23.376Z,2236
2016-07-06T11:19:23.985Z,1716
2016-07-06T11:20:23.382Z,1968
2016-07-06T11:21:24.288Z,1892
2016-07-06T11:22:24.006Z,1840
2016-07-06T11:23:22.174Z,2184
2016-07-06T11:24:24.019Z,2176
2016-07-06T11:25:23.411Z,1732
2016-07-06T11:26:23.442Z,1600
2016-07-06T11:27:23.428Z,2136
2016-07-06T11:28:24.566Z,2172
2016-07-06T11:29:23.434Z,1992
2016-07-06T11:30:23.595Z,1868
2016-07-06T11:31:22.837Z,2168
2016-07-06T11:32:22.650Z,1428
2016-07-06T11:33:22.838Z,1336
2016-07-06T11:34:23.454Z,1264
2016-07-06T11:35:22.844Z,1884
2016-07-06T11:36:23.454Z,1876
2016-07-06T11:37:22.868Z,1848
2016-07-06T11:38:22.261Z,1304
2016-07-06T11:39:24.036Z,1896
2016-07-06T11:40:22.887Z,1472
2016-07-06T11:41:23.640Z,1392
2016-07-06T11:42:22.291Z,1600
2016-07-06T11:43:24.511Z,1828
2016-07-06T11:44:22.296Z,1820
2016-07-06T11:45:23.532Z,1764
2016-07-06T11:46:22.292Z,1888
2016-07-06T11:47:23.525Z,1672
2016-07-06T11:48:24.151Z,1292
2016-07-06T11:49:22.925Z,1200
2016-07-06T11:50:24.095Z,1188
2016-07-06T11:51:23.555Z,1356
2016-07-06T11:52:23.760Z,1192
2016-07-06T11:53:24.174Z,1384
2016-07-06T11:54:24.931Z,1572
2016-07-06T11:55:23.584Z,1904
2016-07-06T11:56:22.970Z,1904
2016-07-06T11:57:22.369Z,1476
2016-07-06T11:58:22.983Z,1912
2016-07-06T11:59:24.219Z,1520
2016-07-06T12:00:23.609Z,1392
2016-07-06T12:01:22.396Z,1312
2016-07-06T12:02:23.010Z,1836
2016-07-06T12:03:23.363Z,1972
2016-07-06T12:04:23.644Z,1828
2016-07-06T12:05:23.034Z,1620
2016-07-06T12:06:23.059Z,1352
2016-07-06T12:07:23.752Z,1616
2016-07-06T12:08:23.680Z,1676
2016-07-06T12:09:23.677Z,1500
2016-07-06T12:10:23.114Z,1720
2016-07-06T12:11:23.685Z,1604
2016-07-06T12:12:24.438Z,1732
2016-07-06T12:13:23.708Z,1580
2016-07-06T12:14:23.651Z,1688
2016-07-06T12:15:23.713Z,1636
2016-07-06T12:16:23.732Z,1728
2016-07-06T12:17:23.117Z,1816
2016-07-06T12:18:24.353Z,1812
2016-07-06T12:19:23.145Z,1820
2016-07-06T12:20:23.759Z,1640
2016-07-06T12:21:24.375Z,1724
2016-07-06T12:22:23.757Z,1520
2016-07-06T12:23:22.537Z,1440
2016-07-06T12:24:23.160Z,1408
2016-07-06T12:25:25.041Z,1392
2016-07-06T12:26:22.570Z,1572
2016-07-06T12:27:23.638Z,1704
2016-07-06T12:28:23.818Z,1504
2016-07-06T12:29:24.424Z,1824
2016-07-06T12:30:23.832Z,1536
2016-07-06T12:31:24.440Z,1356
2016-07-06T12:32:23.222Z,1316
2016-07-06T12:33:23.241Z,1464
2016-07-06T12:34:24.216Z,1456
2016-07-06T12:35:24.462Z,1476
2016-07-06T12:36:24.080Z,1528
2016-07-06T12:37:24.485Z,1584
2016-07-06T12:38:23.730Z,1568
2016-07-06T12:39:24.502Z,1492
2016-07-06T12:40:23.891Z,1456
2016-07-06T12:41:23.283Z,1476
2016-07-06T12:42:23.295Z,1572
2016-07-06T12:43:23.895Z,1296
2016-07-06T12:44:23.301Z,1268
2016-07-06T12:45:23.309Z,1280
2016-07-06T12:46:24.540Z,1248
2016-07-06T12:47:24.952Z,1212
2016-07-06T12:48:23.930Z,1152
2016-07-06T12:49:24.078Z,1132
2016-07-06T12:50:23.941Z,1164
2016-07-06T12:51:24.577Z,1252
2016-07-06T12:52:23.353Z,1348
2016-07-06T12:53:23.345Z,1616
2016-07-06T12:54:23.980Z,1560
2016-07-06T12:55:22.753Z,1704
2016-07-06T12:56:23.370Z,1700
2016-07-06T12:57:24.012Z,1692
2016-07-06T12:58:25.120Z,1596
2016-07-06T12:59:24.619Z,1468
2016-07-06T13:00:24.813Z,1404
2016-07-06T13:01:24.034Z,1304
2016-07-06T13:02:24.034Z,1232
2016-07-06T13:03:24.645Z,1104
2016-07-06T13:04:23.432Z,1032
2016-07-06T13:05:23.468Z,992
2016-07-06T13:06:23.439Z,1020
2016-07-06T13:07:24.275Z,952
2016-07-06T13:08:23.460Z,968
2016-07-06T13:09:24.078Z,780
2016-07-06T13:10:23.571Z,736
2016-07-06T13:11:25.243Z,700
2016-07-06T13:12:24.091Z,664
2016-07-06T13:13:24.101Z,644
2016-07-06T13:14:24.107Z,628
2016-07-06T13:15:24.115Z,632
2016-07-06T13:16:24.122Z,668
2016-07-06T13:17:24.117Z,704
2016-07-06T13:18:23.809Z,728
2016-07-06T13:19:23.531Z,816
2016-07-06T13:20:24.129Z,836
2016-07-06T13:21:22.918Z,964
2016-07-06T13:22:24.148Z,976
2016-07-06T13:23:22.937Z,1072
2016-07-06T13:24:24.780Z,1252
2016-07-06T13:25:23.541Z,1252
2016-07-06T13:26:23.552Z,1204
2016-07-06T13:27:24.183Z,1180
2016-07-06T13:28:23.584Z,1128
2016-07-06T13:29:24.230Z,1064
2016-07-06T13:30:24.187Z,996
2016-07-06T13:31:25.782Z,976
2016-07-06T13:32:22.969Z,956
2016-07-06T13:33:25.567Z,952
2016-07-06T13:34:24.208Z,856
2016-07-06T13:35:24.212Z,848
2016-07-06T13:36:24.240Z,892
2016-07-06T13:37:24.233Z,888
2016-07-06T13:38:24.230Z,808
2016-07-06T13:39:23.630Z,828
2016-07-06T13:40:24.185Z,868
2016-07-06T13:41:24.867Z,828